sensor_id;sensor_type;location;lat;lon;timestamp;temperature;humidity
41592;DHT22;28026;48.562;14.440;2023-07-08T00:01:20;18.00;99.90
41592;DHT22;28026;48.562;14.440;2023-07-08T00:03:51;18.00;99.90
41592;DHT22;28026;48.562;14.440;2023-07-08T00:06:25;18.00;99.90
41592;DHT22;28026;48.562;14.440;2023-07-08T00:08:58;17.90;99.90
41592;DHT22;28026;48.562;14.440;2023-07-08T00:11:29;17.80;99.90
41592;DHT22;28026;48.562;14.440;2023-07-08T00:14:00;17.80;99.90
41592;DHT22;28026;48.562;14.440;2023-07-08T00:16:31;17.80;99.90
41592;DHT22;28026;48.562;14.440;2023-07-08T00:19:01;17.80;99.90
41592;DHT22;28026;48.562;14.440;2023-07-08T00:21:36;17.80;99.90
41592;DHT22;28026;48.562;14.440;2023-07-08T00:24:07;17.80;99.90
41592;DHT22;28026;48.562;14.440;2023-07-08T00:26:38;17.70;99.90
41592;DHT22;28026;48.562;14.440;2023-07-08T00:29:09;17.70;99.90
41592;DHT22;28026;48.562;14.440;2023-07-08T00:31:47;17.60;99.90
41592;DHT22;28026;48.562;14.440;2023-07-08T00:34:18;17.60;99.90
41592;DHT22;28026;48.562;14.440;2023-07-08T00:36:49;17.60;99.90
41592;DHT22;28026;48.562;14.440;2023-07-08T00:39:20;17.60;99.90
41592;DHT22;28026;48.562;14.440;2023-07-08T00:41:51;17.50;99.90
41592;DHT22;28026;48.562;14.440;2023-07-08T00:44:24;17.60;99.90
41592;DHT22;28026;48.562;14.440;2023-07-08T00:47:02;17.60;99.90
41592;DHT22;28026;48.562;14.440;2023-07-08T00:49:47;17.60;99.90
41592;DHT22;28026;48.562;14.440;2023-07-08T00:52:29;17.60;99.90
41592;DHT22;28026;48.562;14.440;2023-07-08T00:55:06;17.60;99.90
41592;DHT22;28026;48.562;14.440;2023-07-08T00:57:43;17.60;99.90
41592;DHT22;28026;48.562;14.440;2023-07-08T01:00:16;17.50;99.90
41592;DHT22;28026;48.562;14.440;2023-07-08T01:02:52;17.50;99.90
41592;DHT22;28026;48.562;14.440;2023-07-08T01:05:28;17.40;99.90
41592;DHT22;28026;48.562;14.440;2023-07-08T01:08:03;17.40;99.90
41592;DHT22;28026;48.562;14.440;2023-07-08T01:10:47;17.40;99.90
41592;DHT22;28026;48.562;14.440;2023-07-08T01:13:23;17.40;99.90
41592;DHT22;28026;48.562;14.440;2023-07-08T01:15:55;17.30;99.90
41592;DHT22;28026;48.562;14.440;2023-07-08T01:18:28;17.00;99.90
41592;DHT22;28026;48.562;14.440;2023-07-08T01:21:05;16.70;99.90
41592;DHT22;28026;48.562;14.440;2023-07-08T01:24:06;16.70;99.90
41592;DHT22;28026;48.562;14.440;2023-07-08T01:26:43;16.80;99.90
41592;DHT22;28026;48.562;14.440;2023-07-08T01:29:16;16.80;99.90
41592;DHT22;28026;48.562;14.440;2023-07-08T01:31:48;16.80;99.90
41592;DHT22;28026;48.562;14.440;2023-07-08T01:34:19;16.90;99.90
41592;DHT22;28026;48.562;14.440;2023-07-08T01:36:55;16.90;99.90
41592;DHT22;28026;48.562;14.440;2023-07-08T01:39:30;17.00;99.90
41592;DHT22;28026;48.562;14.440;2023-07-08T01:42:02;17.00;99.90
41592;DHT22;28026;48.562;14.440;2023-07-08T01:44:35;17.10;99.90
41592;DHT22;28026;48.562;14.440;2023-07-08T01:47:19;17.10;99.90
41592;DHT22;28026;48.562;14.440;2023-07-08T01:49:53;17.10;99.90
41592;DHT22;28026;48.562;14.440;2023-07-08T01:52:24;17.10;99.90
41592;DHT22;28026;48.562;14.440;2023-07-08T01:54:55;17.10;99.90
41592;DHT22;28026;48.562;14.440;2023-07-08T01:57:26;17.10;99.90
41592;DHT22;28026;48.562;14.440;2023-07-08T01:59:57;17.20;99.90
41592;DHT22;28026;48.562;14.440;2023-07-08T02:02:28;17.10;99.90
41592;DHT22;28026;48.562;14.440;2023-07-08T02:04:59;17.10;99.90
41592;DHT22;28026;48.562;14.440;2023-07-08T02:07:30;17.00;99.90
41592;DHT22;28026;48.562;14.440;2023-07-08T02:10:01;17.00;99.90
41592;DHT22;28026;48.562;14.440;2023-07-08T02:12:32;17.00;99.90
41592;DHT22;28026;48.562;14.440;2023-07-08T02:15:03;16.90;99.90
41592;DHT22;28026;48.562;14.440;2023-07-08T02:17:35;16.80;99.90
41592;DHT22;28026;48.562;14.440;2023-07-08T02:20:06;16.70;99.90
41592;DHT22;28026;48.562;14.440;2023-07-08T02:22:39;16.60;99.90
41592;DHT22;28026;48.562;14.440;2023-07-08T02:25:10;16.60;99.90
41592;DHT22;28026;48.562;14.440;2023-07-08T02:27:41;16.50;99.90
41592;DHT22;28026;48.562;14.440;2023-07-08T02:30:12;16.40;99.90
41592;DHT22;28026;48.562;14.440;2023-07-08T02:32:43;16.40;99.90
41592;DHT22;28026;48.562;14.440;2023-07-08T02:35:19;16.40;99.90
41592;DHT22;28026;48.562;14.440;2023-07-08T02:37:50;16.40;99.90
41592;DHT22;28026;48.562;14.440;2023-07-08T02:40:21;16.10;99.90
41592;DHT22;28026;48.562;14.440;2023-07-08T02:42:52;15.80;99.90
41592;DHT22;28026;48.562;14.440;2023-07-08T02:45:23;15.50;99.90
41592;DHT22;28026;48.562;14.440;2023-07-08T02:47:54;15.50;99.90
41592;DHT22;28026;48.562;14.440;2023-07-08T02:50:25;15.60;99.90
41592;DHT22;28026;48.562;14.440;2023-07-08T02:52:56;15.60;99.90
41592;DHT22;28026;48.562;14.440;2023-07-08T02:55:27;15.60;99.90
41592;DHT22;28026;48.562;14.440;2023-07-08T02:57:58;15.60;99.90
41592;DHT22;28026;48.562;14.440;2023-07-08T03:00:28;15.40;99.90
41592;DHT22;28026;48.562;14.440;2023-07-08T03:02:59;15.50;99.90
41592;DHT22;28026;48.562;14.440;2023-07-08T03:05:30;15.50;99.90
41592;DHT22;28026;48.562;14.440;2023-07-08T03:08:01;15.40;99.90
41592;DHT22;28026;48.562;14.440;2023-07-08T03:10:32;15.20;99.90
41592;DHT22;28026;48.562;14.440;2023-07-08T03:13:03;15.10;99.90
41592;DHT22;28026;48.562;14.440;2023-07-08T03:15:34;15.00;99.90
41592;DHT22;28026;48.562;14.440;2023-07-08T03:18:04;14.90;99.90
41592;DHT22;28026;48.562;14.440;2023-07-08T03:20:35;14.80;99.90
41592;DHT22;28026;48.562;14.440;2023-07-08T03:23:09;14.80;99.90
41592;DHT22;28026;48.562;14.440;2023-07-08T03:25:42;14.80;99.90
41592;DHT22;28026;48.562;14.440;2023-07-08T03:28:13;14.90;99.90
41592;DHT22;28026;48.562;14.440;2023-07-08T03:30:45;14.90;99.90
41592;DHT22;28026;48.562;14.440;2023-07-08T03:33:23;15.00;99.90
41592;DHT22;28026;48.562;14.440;2023-07-08T03:35:55;15.10;99.90
41592;DHT22;28026;48.562;14.440;2023-07-08T03:38:26;15.10;99.90
41592;DHT22;28026;48.562;14.440;2023-07-08T03:40:57;14.90;99.90
41592;DHT22;28026;48.562;14.440;2023-07-08T03:43:28;15.00;99.90
41592;DHT22;28026;48.562;14.440;2023-07-08T03:45:59;15.10;99.90
41592;DHT22;28026;48.562;14.440;2023-07-08T03:48:30;15.10;99.90
41592;DHT22;28026;48.562;14.440;2023-07-08T03:51:01;14.70;99.90
41592;DHT22;28026;48.562;14.440;2023-07-08T03:53:32;14.50;99.90
41592;DHT22;28026;48.562;14.440;2023-07-08T03:56:03;14.50;99.90
41592;DHT22;28026;48.562;14.440;2023-07-08T03:58:34;14.50;99.90
41592;DHT22;28026;48.562;14.440;2023-07-08T04:01:05;14.70;99.90
41592;DHT22;28026;48.562;14.440;2023-07-08T04:03:52;14.70;99.90
41592;DHT22;28026;48.562;14.440;2023-07-08T04:06:27;15.00;99.90
41592;DHT22;28026;48.562;14.440;2023-07-08T04:08:59;15.00;99.90
41592;DHT22;28026;48.562;14.440;2023-07-08T04:11:30;15.10;99.90
41592;DHT22;28026;48.562;14.440;2023-07-08T04:14:01;15.10;99.90
41592;DHT22;28026;48.562;14.440;2023-07-08T04:16:48;15.10;99.90
41592;DHT22;28026;48.562;14.440;2023-07-08T04:19:28;15.10;99.90
41592;DHT22;28026;48.562;14.440;2023-07-08T04:22:00;15.10;99.90
41592;DHT22;28026;48.562;14.440;2023-07-08T04:24:32;15.10;99.90
41592;DHT22;28026;48.562;14.440;2023-07-08T04:27:04;15.20;99.90
41592;DHT22;28026;48.562;14.440;2023-07-08T04:29:35;15.30;99.90
41592;DHT22;28026;48.562;14.440;2023-07-08T04:32:06;15.20;99.90
41592;DHT22;28026;48.562;14.440;2023-07-08T04:34:38;15.20;99.90
41592;DHT22;28026;48.562;14.440;2023-07-08T04:37:11;15.30;99.90
41592;DHT22;28026;48.562;14.440;2023-07-08T04:39:46;15.40;99.90
41592;DHT22;28026;48.562;14.440;2023-07-08T04:42:17;15.50;99.90
41592;DHT22;28026;48.562;14.440;2023-07-08T04:44:48;15.60;99.90
41592;DHT22;28026;48.562;14.440;2023-07-08T04:47:19;15.70;99.90
41592;DHT22;28026;48.562;14.440;2023-07-08T04:49:50;15.80;99.90
41592;DHT22;28026;48.562;14.440;2023-07-08T04:52:21;16.00;99.90
41592;DHT22;28026;48.562;14.440;2023-07-08T04:54:52;16.30;99.90
41592;DHT22;28026;48.562;14.440;2023-07-08T04:57:23;16.20;99.90
41592;DHT22;28026;48.562;14.440;2023-07-08T04:59:55;16.40;99.90
41592;DHT22;28026;48.562;14.440;2023-07-08T05:02:26;16.60;99.90
41592;DHT22;28026;48.562;14.440;2023-07-08T05:04:57;16.60;99.90
41592;DHT22;28026;48.562;14.440;2023-07-08T05:07:28;16.70;99.90
41592;DHT22;28026;48.562;14.440;2023-07-08T05:09:58;16.80;99.90
41592;DHT22;28026;48.562;14.440;2023-07-08T05:12:29;17.00;99.90
41592;DHT22;28026;48.562;14.440;2023-07-08T05:15:00;17.30;99.90
41592;DHT22;28026;48.562;14.440;2023-07-08T05:17:31;17.70;99.90
41592;DHT22;28026;48.562;14.440;2023-07-08T05:20:02;18.00;99.90
41592;DHT22;28026;48.562;14.440;2023-07-08T05:22:34;17.30;99.90
41592;DHT22;28026;48.562;14.440;2023-07-08T05:25:06;16.80;99.90
41592;DHT22;28026;48.562;14.440;2023-07-08T05:27:37;17.00;99.90
41592;DHT22;28026;48.562;14.440;2023-07-08T05:30:15;17.50;99.90
41592;DHT22;28026;48.562;14.440;2023-07-08T05:32:48;17.90;99.90
41592;DHT22;28026;48.562;14.440;2023-07-08T05:35:19;18.20;99.90
41592;DHT22;28026;48.562;14.440;2023-07-08T05:37:50;18.60;99.90
41592;DHT22;28026;48.562;14.440;2023-07-08T05:40:21;19.10;99.90
41592;DHT22;28026;48.562;14.440;2023-07-08T05:42:52;19.50;99.90
41592;DHT22;28026;48.562;14.440;2023-07-08T05:45:22;19.70;99.90
41592;DHT22;28026;48.562;14.440;2023-07-08T05:47:53;19.70;99.90
41592;DHT22;28026;48.562;14.440;2023-07-08T05:50:24;19.50;99.90
41592;DHT22;28026;48.562;14.440;2023-07-08T05:52:55;19.10;99.90
41592;DHT22;28026;48.562;14.440;2023-07-08T05:55:26;19.00;99.90
41592;DHT22;28026;48.562;14.440;2023-07-08T05:57:57;19.00;99.90
41592;DHT22;28026;48.562;14.440;2023-07-08T06:00:28;19.10;99.90
41592;DHT22;28026;48.562;14.440;2023-07-08T06:02:59;19.50;99.90
41592;DHT22;28026;48.562;14.440;2023-07-08T06:05:30;19.70;99.90
41592;DHT22;28026;48.562;14.440;2023-07-08T06:08:03;19.80;99.90
41592;DHT22;28026;48.562;14.440;2023-07-08T06:10:41;20.20;99.90
41592;DHT22;28026;48.562;14.440;2023-07-08T06:13:16;20.40;99.90
41592;DHT22;28026;48.562;14.440;2023-07-08T06:15:48;20.50;99.90
41592;DHT22;28026;48.562;14.440;2023-07-08T06:18:19;20.80;99.90
41592;DHT22;28026;48.562;14.440;2023-07-08T06:20:54;21.40;99.90
41592;DHT22;28026;48.562;14.440;2023-07-08T06:23:28;21.80;99.90
41592;DHT22;28026;48.562;14.440;2023-07-08T06:26:00;22.40;99.90
41592;DHT22;28026;48.562;14.440;2023-07-08T06:28:31;22.80;99.90
41592;DHT22;28026;48.562;14.440;2023-07-08T06:31:02;23.10;99.90
41592;DHT22;28026;48.562;14.440;2023-07-08T06:33:33;23.30;99.90
41592;DHT22;28026;48.562;14.440;2023-07-08T06:36:04;23.50;99.90
41592;DHT22;28026;48.562;14.440;2023-07-08T06:38:35;23.30;99.90
41592;DHT22;28026;48.562;14.440;2023-07-08T06:41:05;23.40;99.90
41592;DHT22;28026;48.562;14.440;2023-07-08T06:43:37;23.80;99.90
41592;DHT22;28026;48.562;14.440;2023-07-08T06:46:08;23.50;99.90
41592;DHT22;28026;48.562;14.440;2023-07-08T06:48:39;23.60;99.90
41592;DHT22;28026;48.562;14.440;2023-07-08T06:51:10;23.70;99.90
41592;DHT22;28026;48.562;14.440;2023-07-08T06:53:41;23.50;99.90
41592;DHT22;28026;48.562;14.440;2023-07-08T06:56:12;23.30;99.90
41592;DHT22;28026;48.562;14.440;2023-07-08T06:58:43;23.70;99.90
41592;DHT22;28026;48.562;14.440;2023-07-08T07:01:14;24.00;99.50
41592;DHT22;28026;48.562;14.440;2023-07-08T07:03:45;24.40;96.70
41592;DHT22;28026;48.562;14.440;2023-07-08T07:06:16;24.70;95.40
41592;DHT22;28026;48.562;14.440;2023-07-08T07:08:48;24.70;95.80
41592;DHT22;28026;48.562;14.440;2023-07-08T07:11:19;24.90;94.80
41592;DHT22;28026;48.562;14.440;2023-07-08T07:13:50;25.10;94.50
41592;DHT22;28026;48.562;14.440;2023-07-08T07:16:21;25.20;95.00
41592;DHT22;28026;48.562;14.440;2023-07-08T07:18:51;25.20;93.80
41592;DHT22;28026;48.562;14.440;2023-07-08T07:21:22;25.40;94.10
41592;DHT22;28026;48.562;14.440;2023-07-08T07:23:53;25.30;93.50
41592;DHT22;28026;48.562;14.440;2023-07-08T07:26:24;25.30;93.10
41592;DHT22;28026;48.562;14.440;2023-07-08T07:28:55;25.00;93.30
41592;DHT22;28026;48.562;14.440;2023-07-08T07:31:26;25.10;92.60
41592;DHT22;28026;48.562;14.440;2023-07-08T07:33:58;25.00;92.40
41592;DHT22;28026;48.562;14.440;2023-07-08T07:36:30;25.30;92.00
41592;DHT22;28026;48.562;14.440;2023-07-08T07:39:01;25.50;92.90
41592;DHT22;28026;48.562;14.440;2023-07-08T07:41:32;25.70;92.00
41592;DHT22;28026;48.562;14.440;2023-07-08T07:44:03;25.70;90.60
41592;DHT22;28026;48.562;14.440;2023-07-08T07:46:34;25.80;92.10
41592;DHT22;28026;48.562;14.440;2023-07-08T07:49:05;25.20;91.70
41592;DHT22;28026;48.562;14.440;2023-07-08T07:51:36;25.10;92.40
41592;DHT22;28026;48.562;14.440;2023-07-08T07:54:07;24.70;91.90
41592;DHT22;28026;48.562;14.440;2023-07-08T07:56:38;25.00;91.70
41592;DHT22;28026;48.562;14.440;2023-07-08T07:59:10;25.10;91.50
41592;DHT22;28026;48.562;14.440;2023-07-08T08:01:41;25.10;91.40
41592;DHT22;28026;48.562;14.440;2023-07-08T08:04:13;25.10;92.10
41592;DHT22;28026;48.562;14.440;2023-07-08T08:06:43;24.90;91.20
41592;DHT22;28026;48.562;14.440;2023-07-08T08:09:15;25.00;91.40
41592;DHT22;28026;48.562;14.440;2023-07-08T08:11:45;25.10;92.00
41592;DHT22;28026;48.562;14.440;2023-07-08T08:14:16;25.70;91.40
41592;DHT22;28026;48.562;14.440;2023-07-08T08:16:48;26.10;91.00
41592;DHT22;28026;48.562;14.440;2023-07-08T08:19:19;26.50;91.10
41592;DHT22;28026;48.562;14.440;2023-07-08T08:21:50;26.30;90.10
41592;DHT22;28026;48.562;14.440;2023-07-08T08:24:20;26.60;90.60
41592;DHT22;28026;48.562;14.440;2023-07-08T08:26:51;26.30;91.00
41592;DHT22;28026;48.562;14.440;2023-07-08T08:29:22;26.40;90.90
41592;DHT22;28026;48.562;14.440;2023-07-08T08:31:53;26.50;90.50
41592;DHT22;28026;48.562;14.440;2023-07-08T08:34:24;26.50;89.90
41592;DHT22;28026;48.562;14.440;2023-07-08T08:36:55;26.80;90.00
41592;DHT22;28026;48.562;14.440;2023-07-08T08:39:26;27.20;90.00
41592;DHT22;28026;48.562;14.440;2023-07-08T08:41:59;26.90;87.50
41592;DHT22;28026;48.562;14.440;2023-07-08T08:44:34;27.10;89.90
41592;DHT22;28026;48.562;14.440;2023-07-08T08:53:16;27.20;87.20
41592;DHT22;28026;48.562;14.440;2023-07-08T08:56:24;27.80;87.00
41592;DHT22;28026;48.562;14.440;2023-07-08T09:05:16;27.80;87.10
41592;DHT22;28026;48.562;14.440;2023-07-08T09:13:58;27.60;85.90
41592;DHT22;28026;48.562;14.440;2023-07-08T09:19:33;28.40;86.80
41592;DHT22;28026;48.562;14.440;2023-07-08T09:22:51;29.10;86.70
41592;DHT22;28026;48.562;14.440;2023-07-08T09:28:08;30.40;83.80
41592;DHT22;28026;48.562;14.440;2023-07-08T09:30:39;29.10;80.00
41592;DHT22;28026;48.562;14.440;2023-07-08T09:33:10;28.70;82.20
41592;DHT22;28026;48.562;14.440;2023-07-08T09:35:45;29.60;84.10
41592;DHT22;28026;48.562;14.440;2023-07-08T09:38:22;29.10;81.00
41592;DHT22;28026;48.562;14.440;2023-07-08T09:40:53;29.20;81.70
41592;DHT22;28026;48.562;14.440;2023-07-08T09:43:30;29.80;81.00
41592;DHT22;28026;48.562;14.440;2023-07-08T09:46:12;30.00;81.60
41592;DHT22;28026;48.562;14.440;2023-07-08T09:48:43;30.20;79.70
41592;DHT22;28026;48.562;14.440;2023-07-08T09:51:15;29.90;79.70
41592;DHT22;28026;48.562;14.440;2023-07-08T09:53:46;28.90;80.40
41592;DHT22;28026;48.562;14.440;2023-07-08T09:56:18;29.10;82.30
41592;DHT22;28026;48.562;14.440;2023-07-08T09:58:49;29.80;81.60
41592;DHT22;28026;48.562;14.440;2023-07-08T10:01:24;29.90;80.30
41592;DHT22;28026;48.562;14.440;2023-07-08T10:03:59;29.30;79.50
41592;DHT22;28026;48.562;14.440;2023-07-08T10:06:34;29.40;79.70
41592;DHT22;28026;48.562;14.440;2023-07-08T10:09:20;29.60;79.60
41592;DHT22;28026;48.562;14.440;2023-07-08T10:12:00;29.50;80.30
41592;DHT22;28026;48.562;14.440;2023-07-08T10:14:45;29.10;80.80
41592;DHT22;28026;48.562;14.440;2023-07-08T10:17:25;30.00;78.80
41592;DHT22;28026;48.562;14.440;2023-07-08T10:19:57;30.30;79.40
41592;DHT22;28026;48.562;14.440;2023-07-08T10:26:20;29.70;78.10
41592;DHT22;28026;48.562;14.440;2023-07-08T10:29:14;30.90;76.20
41592;DHT22;28026;48.562;14.440;2023-07-08T10:38:35;29.80;77.10
41592;DHT22;28026;48.562;14.440;2023-07-08T10:42:00;29.90;76.30
41592;DHT22;28026;48.562;14.440;2023-07-08T10:47:56;30.10;76.50
41592;DHT22;28026;48.562;14.440;2023-07-08T10:54:27;29.40;79.50
41592;DHT22;28026;48.562;14.440;2023-07-08T11:00:33;30.50;78.00
41592;DHT22;28026;48.562;14.440;2023-07-08T11:06:11;30.90;73.80
41592;DHT22;28026;48.562;14.440;2023-07-08T11:09:02;31.40;73.00
41592;DHT22;28026;48.562;14.440;2023-07-08T11:11:44;30.40;75.10
41592;DHT22;28026;48.562;14.440;2023-07-08T11:14:38;30.10;74.70
41592;DHT22;28026;48.562;14.440;2023-07-08T11:17:30;30.80;74.50
41592;DHT22;28026;48.562;14.440;2023-07-08T11:20:28;30.90;73.30
41592;DHT22;28026;48.562;14.440;2023-07-08T11:23:26;31.10;73.50
41592;DHT22;28026;48.562;14.440;2023-07-08T11:26:33;31.20;73.20
41592;DHT22;28026;48.562;14.440;2023-07-08T11:29:26;30.70;74.00
41592;DHT22;28026;48.562;14.440;2023-07-08T11:32:15;31.60;75.20
41592;DHT22;28026;48.562;14.440;2023-07-08T11:34:50;32.60;72.90
41592;DHT22;28026;48.562;14.440;2023-07-08T11:37:24;32.60;73.50
41592;DHT22;28026;48.562;14.440;2023-07-08T11:40:19;32.10;73.00
41592;DHT22;28026;48.562;14.440;2023-07-08T11:43:00;32.50;72.70
41592;DHT22;28026;48.562;14.440;2023-07-08T11:45:43;32.80;71.30
41592;DHT22;28026;48.562;14.440;2023-07-08T11:48:20;32.70;71.60
41592;DHT22;28026;48.562;14.440;2023-07-08T11:50:57;32.60;73.10
41592;DHT22;28026;48.562;14.440;2023-07-08T11:53:36;32.90;69.70
41592;DHT22;28026;48.562;14.440;2023-07-08T11:56:21;32.10;69.00
41592;DHT22;28026;48.562;14.440;2023-07-08T11:59:14;31.40;70.80
41592;DHT22;28026;48.562;14.440;2023-07-08T12:02:12;31.90;68.10
41592;DHT22;28026;48.562;14.440;2023-07-08T12:05:04;32.10;68.90
41592;DHT22;28026;48.562;14.440;2023-07-08T12:07:48;32.20;69.50
41592;DHT22;28026;48.562;14.440;2023-07-08T12:10:38;32.00;69.70
41592;DHT22;28026;48.562;14.440;2023-07-08T12:13:23;31.40;71.20
41592;DHT22;28026;48.562;14.440;2023-07-08T12:15:55;31.30;70.50
41592;DHT22;28026;48.562;14.440;2023-07-08T12:18:32;32.10;71.40
41592;DHT22;28026;48.562;14.440;2023-07-08T12:21:09;31.50;70.30
41592;DHT22;28026;48.562;14.440;2023-07-08T12:23:45;30.90;70.30
41592;DHT22;28026;48.562;14.440;2023-07-08T12:26:17;30.70;69.80
41592;DHT22;28026;48.562;14.440;2023-07-08T12:28:48;31.60;70.70
41592;DHT22;28026;48.562;14.440;2023-07-08T12:31:21;31.20;70.00
41592;DHT22;28026;48.562;14.440;2023-07-08T12:33:54;30.90;70.90
41592;DHT22;28026;48.562;14.440;2023-07-08T12:36:28;31.20;71.90
41592;DHT22;28026;48.562;14.440;2023-07-08T12:39:02;31.40;70.70
41592;DHT22;28026;48.562;14.440;2023-07-08T12:41:35;31.80;71.70
41592;DHT22;28026;48.562;14.440;2023-07-08T12:44:17;30.70;71.10
41592;DHT22;28026;48.562;14.440;2023-07-08T12:46:53;30.70;72.00
41592;DHT22;28026;48.562;14.440;2023-07-08T12:49:25;30.60;72.00
41592;DHT22;28026;48.562;14.440;2023-07-08T12:51:57;31.00;71.00
41592;DHT22;28026;48.562;14.440;2023-07-08T12:54:28;31.60;71.90
41592;DHT22;28026;48.562;14.440;2023-07-08T12:57:00;32.50;68.90
41592;DHT22;28026;48.562;14.440;2023-07-08T12:59:32;32.80;72.20
41592;DHT22;28026;48.562;14.440;2023-07-08T13:02:07;33.50;68.20
41592;DHT22;28026;48.562;14.440;2023-07-08T13:04:50;33.70;68.20
41592;DHT22;28026;48.562;14.440;2023-07-08T13:07:35;33.70;67.90
41592;DHT22;28026;48.562;14.440;2023-07-08T13:10:20;32.70;71.70
41592;DHT22;28026;48.562;14.440;2023-07-08T13:12:58;32.30;72.20
41592;DHT22;28026;48.562;14.440;2023-07-08T13:15:39;32.40;76.20
41592;DHT22;28026;48.562;14.440;2023-07-08T13:18:27;31.20;76.50
41592;DHT22;28026;48.562;14.440;2023-07-08T13:21:13;29.90;77.40
41592;DHT22;28026;48.562;14.440;2023-07-08T13:23:46;29.90;78.70
41592;DHT22;28026;48.562;14.440;2023-07-08T13:26:19;28.80;81.80
41592;DHT22;28026;48.562;14.440;2023-07-08T13:29:01;28.50;80.20
41592;DHT22;28026;48.562;14.440;2023-07-08T13:31:47;29.90;79.00
41592;DHT22;28026;48.562;14.440;2023-07-08T13:34:24;29.50;77.60
41592;DHT22;28026;48.562;14.440;2023-07-08T13:36:55;29.40;78.70
41592;DHT22;28026;48.562;14.440;2023-07-08T13:39:32;29.50;77.80
41592;DHT22;28026;48.562;14.440;2023-07-08T13:42:07;29.70;77.30
41592;DHT22;28026;48.562;14.440;2023-07-08T13:44:43;30.00;77.40
41592;DHT22;28026;48.562;14.440;2023-07-08T13:47:22;29.50;78.80
41592;DHT22;28026;48.562;14.440;2023-07-08T13:50:27;28.40;80.90
41592;DHT22;28026;48.562;14.440;2023-07-08T13:53:19;28.40;82.10
41592;DHT22;28026;48.562;14.440;2023-07-08T13:56:21;27.80;81.90
41592;DHT22;28026;48.562;14.440;2023-07-08T13:59:06;28.20;80.90
41592;DHT22;28026;48.562;14.440;2023-07-08T14:01:48;29.30;80.80
41592;DHT22;28026;48.562;14.440;2023-07-08T14:04:34;29.40;79.60
41592;DHT22;28026;48.562;14.440;2023-07-08T14:07:17;29.70;79.90
41592;DHT22;28026;48.562;14.440;2023-07-08T14:09:52;30.40;78.50
41592;DHT22;28026;48.562;14.440;2023-07-08T14:12:24;29.80;79.10
41592;DHT22;28026;48.562;14.440;2023-07-08T14:14:55;29.40;81.10
41592;DHT22;28026;48.562;14.440;2023-07-08T14:17:27;29.30;80.10
41592;DHT22;28026;48.562;14.440;2023-07-08T14:19:58;29.70;78.00
41592;DHT22;28026;48.562;14.440;2023-07-08T14:22:30;30.00;79.20
41592;DHT22;28026;48.562;14.440;2023-07-08T14:25:07;29.50;78.00
41592;DHT22;28026;48.562;14.440;2023-07-08T14:27:40;29.30;79.00
41592;DHT22;28026;48.562;14.440;2023-07-08T14:30:11;29.80;78.60
41592;DHT22;28026;48.562;14.440;2023-07-08T14:32:43;30.70;76.90
41592;DHT22;28026;48.562;14.440;2023-07-08T14:35:28;31.20;75.00
41592;DHT22;28026;48.562;14.440;2023-07-08T14:38:00;32.30;75.90
41592;DHT22;28026;48.562;14.440;2023-07-08T14:40:36;32.30;74.30
41592;DHT22;28026;48.562;14.440;2023-07-08T14:43:17;32.70;74.70
41592;DHT22;28026;48.562;14.440;2023-07-08T14:45:56;32.10;73.10
41592;DHT22;28026;48.562;14.440;2023-07-08T14:48:32;33.00;76.20
41592;DHT22;28026;48.562;14.440;2023-07-08T14:51:03;33.70;74.30
41592;DHT22;28026;48.562;14.440;2023-07-08T14:53:34;33.80;73.20
41592;DHT22;28026;48.562;14.440;2023-07-08T14:56:14;32.70;72.00
41592;DHT22;28026;48.562;14.440;2023-07-08T14:58:47;32.20;73.70
41592;DHT22;28026;48.562;14.440;2023-07-08T15:01:20;32.50;76.00
41592;DHT22;28026;48.562;14.440;2023-07-08T15:03:52;33.00;73.80
41592;DHT22;28026;48.562;14.440;2023-07-08T15:06:24;32.60;73.50
41592;DHT22;28026;48.562;14.440;2023-07-08T15:08:55;31.90;73.50
41592;DHT22;28026;48.562;14.440;2023-07-08T15:11:26;32.30;75.70
41592;DHT22;28026;48.562;14.440;2023-07-08T15:13:58;32.10;74.40
41592;DHT22;28026;48.562;14.440;2023-07-08T15:16:30;32.20;75.10
41592;DHT22;28026;48.562;14.440;2023-07-08T15:19:01;32.10;75.20
41592;DHT22;28026;48.562;14.440;2023-07-08T15:21:41;32.30;75.00
41592;DHT22;28026;48.562;14.440;2023-07-08T15:24:13;32.40;74.20
41592;DHT22;28026;48.562;14.440;2023-07-08T15:26:48;32.60;74.60
41592;DHT22;28026;48.562;14.440;2023-07-08T15:29:22;32.40;73.60
41592;DHT22;28026;48.562;14.440;2023-07-08T15:31:54;32.30;73.50
41592;DHT22;28026;48.562;14.440;2023-07-08T15:34:25;32.30;74.60
41592;DHT22;28026;48.562;14.440;2023-07-08T15:36:55;32.30;73.70
41592;DHT22;28026;48.562;14.440;2023-07-08T15:39:26;31.80;73.50
41592;DHT22;28026;48.562;14.440;2023-07-08T15:41:58;31.30;74.30
41592;DHT22;28026;48.562;14.440;2023-07-08T15:44:29;31.00;74.30
41592;DHT22;28026;48.562;14.440;2023-07-08T15:47:00;31.10;74.20
41592;DHT22;28026;48.562;14.440;2023-07-08T15:49:32;30.60;75.00
41592;DHT22;28026;48.562;14.440;2023-07-08T15:52:04;30.20;75.20
41592;DHT22;28026;48.562;14.440;2023-07-08T15:54:37;29.80;76.20
41592;DHT22;28026;48.562;14.440;2023-07-08T15:57:11;29.50;75.50
41592;DHT22;28026;48.562;14.440;2023-07-08T15:59:43;29.50;76.70
41592;DHT22;28026;48.562;14.440;2023-07-08T16:02:32;29.40;77.10
41592;DHT22;28026;48.562;14.440;2023-07-08T16:05:07;29.80;77.80
41592;DHT22;28026;48.562;14.440;2023-07-08T16:07:40;30.00;76.30
41592;DHT22;28026;48.562;14.440;2023-07-08T16:10:11;30.00;76.50
41592;DHT22;28026;48.562;14.440;2023-07-08T16:12:42;30.20;76.70
41592;DHT22;28026;48.562;14.440;2023-07-08T16:15:28;30.50;76.60
41592;DHT22;28026;48.562;14.440;2023-07-08T16:18:03;30.60;76.10
41592;DHT22;28026;48.562;14.440;2023-07-08T16:20:39;30.70;75.60
41592;DHT22;28026;48.562;14.440;2023-07-08T16:23:11;31.00;75.90
41592;DHT22;28026;48.562;14.440;2023-07-08T16:25:47;30.70;75.80
41592;DHT22;28026;48.562;14.440;2023-07-08T16:28:33;30.90;74.60
41592;DHT22;28026;48.562;14.440;2023-07-08T16:31:17;30.50;74.60
41592;DHT22;28026;48.562;14.440;2023-07-08T16:33:52;30.20;74.50
41592;DHT22;28026;48.562;14.440;2023-07-08T16:36:26;30.20;75.70
41592;DHT22;28026;48.562;14.440;2023-07-08T16:38:58;30.30;75.80
41592;DHT22;28026;48.562;14.440;2023-07-08T16:41:32;30.10;75.00
41592;DHT22;28026;48.562;14.440;2023-07-08T16:44:14;30.10;75.00
41592;DHT22;28026;48.562;14.440;2023-07-08T16:46:49;30.00;75.50
41592;DHT22;28026;48.562;14.440;2023-07-08T16:49:20;29.80;75.80
41592;DHT22;28026;48.562;14.440;2023-07-08T16:51:51;29.90;76.40